sensor_id;sensor_type;location;lat;lon;timestamp;temperature;humidity
9519;DHT22;4797;50.220;8.782;2023-09-07T00:01:07;17.70;99.80
9519;DHT22;4797;50.220;8.782;2023-09-07T00:03:35;17.70;99.80
9519;DHT22;4797;50.220;8.782;2023-09-07T00:06:10;17.60;99.80
9519;DHT22;4797;50.220;8.782;2023-09-07T00:08:41;17.60;99.80
9519;DHT22;4797;50.220;8.782;2023-09-07T00:11:09;17.50;99.80
9519;DHT22;4797;50.220;8.782;2023-09-07T00:13:37;17.50;99.80
9519;DHT22;4797;50.220;8.782;2023-09-07T00:16:05;17.40;99.80
9519;DHT22;4797;50.220;8.782;2023-09-07T00:18:34;17.40;99.80
9519;DHT22;4797;50.220;8.782;2023-09-07T00:21:02;17.40;99.80
9519;DHT22;4797;50.220;8.782;2023-09-07T00:23:31;17.40;99.80
9519;DHT22;4797;50.220;8.782;2023-09-07T00:25:59;17.30;99.80
9519;DHT22;4797;50.220;8.782;2023-09-07T00:28:27;17.30;99.80
9519;DHT22;4797;50.220;8.782;2023-09-07T00:30:56;17.20;99.80
9519;DHT22;4797;50.220;8.782;2023-09-07T00:33:23;17.10;99.80
9519;DHT22;4797;50.220;8.782;2023-09-07T00:35:51;17.00;99.80
9519;DHT22;4797;50.220;8.782;2023-09-07T00:38:19;17.00;99.80
9519;DHT22;4797;50.220;8.782;2023-09-07T00:40:48;16.90;99.80
9519;DHT22;4797;50.220;8.782;2023-09-07T00:43:16;16.90;99.80
9519;DHT22;4797;50.220;8.782;2023-09-07T00:45:44;16.80;99.80
9519;DHT22;4797;50.220;8.782;2023-09-07T00:48:13;16.80;99.80
9519;DHT22;4797;50.220;8.782;2023-09-07T00:50:43;16.80;99.80
9519;DHT22;4797;50.220;8.782;2023-09-07T00:53:11;16.80;99.80
9519;DHT22;4797;50.220;8.782;2023-09-07T00:55:39;16.70;99.80
9519;DHT22;4797;50.220;8.782;2023-09-07T00:58:08;16.70;99.80
9519;DHT22;4797;50.220;8.782;2023-09-07T01:00:39;16.70;99.80
9519;DHT22;4797;50.220;8.782;2023-09-07T01:03:07;16.60;99.80
9519;DHT22;4797;50.220;8.782;2023-09-07T01:05:43;16.60;99.80
9519;DHT22;4797;50.220;8.782;2023-09-07T01:08:19;16.50;99.80
9519;DHT22;4797;50.220;8.782;2023-09-07T01:10:50;16.50;99.80
9519;DHT22;4797;50.220;8.782;2023-09-07T01:13:20;16.50;99.80
9519;DHT22;4797;50.220;8.782;2023-09-07T01:15:48;16.50;99.80
9519;DHT22;4797;50.220;8.782;2023-09-07T01:18:16;16.50;99.80
9519;DHT22;4797;50.220;8.782;2023-09-07T01:20:51;16.50;99.80
9519;DHT22;4797;50.220;8.782;2023-09-07T01:23:21;16.40;99.80
9519;DHT22;4797;50.220;8.782;2023-09-07T01:25:50;16.40;99.80
9519;DHT22;4797;50.220;8.782;2023-09-07T01:28:19;16.40;99.80
9519;DHT22;4797;50.220;8.782;2023-09-07T01:30:48;16.30;99.80
9519;DHT22;4797;50.220;8.782;2023-09-07T01:33:16;16.30;99.80
9519;DHT22;4797;50.220;8.782;2023-09-07T01:35:45;16.30;99.80
9519;DHT22;4797;50.220;8.782;2023-09-07T01:38:14;16.40;99.80
9519;DHT22;4797;50.220;8.782;2023-09-07T01:40:43;16.40;99.80
9519;DHT22;4797;50.220;8.782;2023-09-07T01:43:11;16.40;99.80
9519;DHT22;4797;50.220;8.782;2023-09-07T01:45:39;16.30;99.80
9519;DHT22;4797;50.220;8.782;2023-09-07T01:48:18;16.30;99.80
9519;DHT22;4797;50.220;8.782;2023-09-07T01:51:07;16.30;99.80
9519;DHT22;4797;50.220;8.782;2023-09-07T01:53:38;16.30;99.80
9519;DHT22;4797;50.220;8.782;2023-09-07T01:56:35;16.40;99.80
9519;DHT22;4797;50.220;8.782;2023-09-07T01:59:05;16.40;99.80
9519;DHT22;4797;50.220;8.782;2023-09-07T02:01:34;16.50;99.80
9519;DHT22;4797;50.220;8.782;2023-09-07T02:04:04;16.50;99.80
9519;DHT22;4797;50.220;8.782;2023-09-07T02:06:32;16.50;99.80
9519;DHT22;4797;50.220;8.782;2023-09-07T02:09:00;16.50;99.80
9519;DHT22;4797;50.220;8.782;2023-09-07T02:11:28;16.40;99.80
9519;DHT22;4797;50.220;8.782;2023-09-07T02:13:58;16.50;99.80
9519;DHT22;4797;50.220;8.782;2023-09-07T02:16:26;16.50;99.80
9519;DHT22;4797;50.220;8.782;2023-09-07T02:19:01;16.60;99.80
9519;DHT22;4797;50.220;8.782;2023-09-07T02:21:29;16.60;99.80
9519;DHT22;4797;50.220;8.782;2023-09-07T02:23:57;16.60;99.80
9519;DHT22;4797;50.220;8.782;2023-09-07T02:26:25;16.50;99.80
9519;DHT22;4797;50.220;8.782;2023-09-07T02:28:53;16.40;99.80
9519;DHT22;4797;50.220;8.782;2023-09-07T02:31:23;16.30;99.80
9519;DHT22;4797;50.220;8.782;2023-09-07T02:33:51;16.30;99.80
9519;DHT22;4797;50.220;8.782;2023-09-07T02:36:19;16.30;99.80
9519;DHT22;4797;50.220;8.782;2023-09-07T02:38:47;16.40;99.80
9519;DHT22;4797;50.220;8.782;2023-09-07T02:41:15;16.50;99.80
9519;DHT22;4797;50.220;8.782;2023-09-07T02:43:43;16.50;99.80
9519;DHT22;4797;50.220;8.782;2023-09-07T02:46:11;16.60;99.80
9519;DHT22;4797;50.220;8.782;2023-09-07T02:48:40;16.60;99.80
9519;DHT22;4797;50.220;8.782;2023-09-07T02:51:09;16.60;99.80
9519;DHT22;4797;50.220;8.782;2023-09-07T02:53:36;16.60;99.80
9519;DHT22;4797;50.220;8.782;2023-09-07T02:56:04;16.70;99.80
9519;DHT22;4797;50.220;8.782;2023-09-07T02:58:34;16.70;99.80
9519;DHT22;4797;50.220;8.782;2023-09-07T03:01:06;16.80;99.80
9519;DHT22;4797;50.220;8.782;2023-09-07T03:03:35;16.80;99.80
9519;DHT22;4797;50.220;8.782;2023-09-07T03:06:09;16.90;99.80
9519;DHT22;4797;50.220;8.782;2023-09-07T03:08:37;16.90;99.80
9519;DHT22;4797;50.220;8.782;2023-09-07T03:11:05;16.90;99.80
9519;DHT22;4797;50.220;8.782;2023-09-07T03:13:33;16.90;99.80
9519;DHT22;4797;50.220;8.782;2023-09-07T03:16:02;16.90;99.80
9519;DHT22;4797;50.220;8.782;2023-09-07T03:18:31;16.90;99.80
9519;DHT22;4797;50.220;8.782;2023-09-07T03:21:01;17.00;99.80
9519;DHT22;4797;50.220;8.782;2023-09-07T03:23:33;17.00;99.80
9519;DHT22;4797;50.220;8.782;2023-09-07T03:26:01;17.00;99.80
9519;DHT22;4797;50.220;8.782;2023-09-07T03:28:29;17.00;99.80
9519;DHT22;4797;50.220;8.782;2023-09-07T03:30:57;16.90;99.80
9519;DHT22;4797;50.220;8.782;2023-09-07T03:33:25;16.80;99.80
9519;DHT22;4797;50.220;8.782;2023-09-07T03:35:53;16.70;99.80
9519;DHT22;4797;50.220;8.782;2023-09-07T03:38:25;16.50;99.80
9519;DHT22;4797;50.220;8.782;2023-09-07T03:40:54;16.40;99.80
9519;DHT22;4797;50.220;8.782;2023-09-07T03:43:22;16.30;99.80
9519;DHT22;4797;50.220;8.782;2023-09-07T03:45:50;16.20;99.80
9519;DHT22;4797;50.220;8.782;2023-09-07T03:48:18;16.10;99.80
9519;DHT22;4797;50.220;8.782;2023-09-07T03:50:47;16.00;99.80
9519;DHT22;4797;50.220;8.782;2023-09-07T03:53:15;16.00;99.80
9519;DHT22;4797;50.220;8.782;2023-09-07T03:55:44;15.90;99.80
9519;DHT22;4797;50.220;8.782;2023-09-07T03:58:13;15.90;99.80
9519;DHT22;4797;50.220;8.782;2023-09-07T04:00:41;15.90;99.80
9519;DHT22;4797;50.220;8.782;2023-09-07T04:03:09;16.00;99.80
9519;DHT22;4797;50.220;8.782;2023-09-07T04:05:38;16.00;99.80
9519;DHT22;4797;50.220;8.782;2023-09-07T04:08:06;16.00;99.80
9519;DHT22;4797;50.220;8.782;2023-09-07T04:10:37;16.00;99.80
9519;DHT22;4797;50.220;8.782;2023-09-07T04:13:05;16.00;99.80
9519;DHT22;4797;50.220;8.782;2023-09-07T04:15:40;16.00;99.80
9519;DHT22;4797;50.220;8.782;2023-09-07T04:18:08;15.90;99.80
9519;DHT22;4797;50.220;8.782;2023-09-07T04:20:36;15.90;99.80
9519;DHT22;4797;50.220;8.782;2023-09-07T04:23:04;15.90;99.80
9519;DHT22;4797;50.220;8.782;2023-09-07T04:25:32;15.90;99.80
9519;DHT22;4797;50.220;8.782;2023-09-07T04:28:00;15.90;99.80
9519;DHT22;4797;50.220;8.782;2023-09-07T04:30:28;15.90;99.80
9519;DHT22;4797;50.220;8.782;2023-09-07T04:32:58;15.80;99.80
9519;DHT22;4797;50.220;8.782;2023-09-07T04:35:28;15.80;99.80
9519;DHT22;4797;50.220;8.782;2023-09-07T04:37:57;15.80;99.80
9519;DHT22;4797;50.220;8.782;2023-09-07T04:40:25;15.90;99.80
9519;DHT22;4797;50.220;8.782;2023-09-07T04:42:53;15.90;99.80
9519;DHT22;4797;50.220;8.782;2023-09-07T04:45:21;15.90;99.80
9519;DHT22;4797;50.220;8.782;2023-09-07T04:47:52;15.90;99.80
9519;DHT22;4797;50.220;8.782;2023-09-07T04:50:21;15.80;99.80
9519;DHT22;4797;50.220;8.782;2023-09-07T04:52:49;15.90;99.80
9519;DHT22;4797;50.220;8.782;2023-09-07T04:55:17;15.90;99.80
9519;DHT22;4797;50.220;8.782;2023-09-07T04:57:45;15.90;99.80
9519;DHT22;4797;50.220;8.782;2023-09-07T05:00:13;16.00;99.80
9519;DHT22;4797;50.220;8.782;2023-09-07T05:02:41;16.00;99.80
9519;DHT22;4797;50.220;8.782;2023-09-07T05:05:10;16.00;99.80
9519;DHT22;4797;50.220;8.782;2023-09-07T05:07:39;16.00;99.80
9519;DHT22;4797;50.220;8.782;2023-09-07T05:10:07;16.00;99.80
9519;DHT22;4797;50.220;8.782;2023-09-07T05:12:45;16.10;99.80
9519;DHT22;4797;50.220;8.782;2023-09-07T05:15:13;16.10;99.80
9519;DHT22;4797;50.220;8.782;2023-09-07T05:17:42;16.20;99.80
9519;DHT22;4797;50.220;8.782;2023-09-07T05:20:10;16.20;99.80
9519;DHT22;4797;50.220;8.782;2023-09-07T05:22:40;16.20;99.80
9519;DHT22;4797;50.220;8.782;2023-09-07T05:25:08;16.30;99.80
9519;DHT22;4797;50.220;8.782;2023-09-07T05:27:37;16.30;99.80
9519;DHT22;4797;50.220;8.782;2023-09-07T05:30:07;16.30;99.80
9519;DHT22;4797;50.220;8.782;2023-09-07T05:32:35;16.30;99.80
9519;DHT22;4797;50.220;8.782;2023-09-07T05:35:03;16.30;99.80
9519;DHT22;4797;50.220;8.782;2023-09-07T05:37:32;16.20;99.80
9519;DHT22;4797;50.220;8.782;2023-09-07T05:40:01;16.10;99.80
9519;DHT22;4797;50.220;8.782;2023-09-07T05:42:33;16.20;99.80
9519;DHT22;4797;50.220;8.782;2023-09-07T05:45:01;16.20;99.80
9519;DHT22;4797;50.220;8.782;2023-09-07T05:47:31;16.30;99.80
9519;DHT22;4797;50.220;8.782;2023-09-07T05:49:59;16.40;99.80
9519;DHT22;4797;50.220;8.782;2023-09-07T05:52:27;16.40;99.80
9519;DHT22;4797;50.220;8.782;2023-09-07T05:54:58;16.50;99.80
9519;DHT22;4797;50.220;8.782;2023-09-07T05:57:27;16.50;99.80
9519;DHT22;4797;50.220;8.782;2023-09-07T05:59:55;16.60;99.80
9519;DHT22;4797;50.220;8.782;2023-09-07T06:02:24;16.70;99.80
9519;DHT22;4797;50.220;8.782;2023-09-07T06:04:54;16.70;99.80
9519;DHT22;4797;50.220;8.782;2023-09-07T06:07:23;16.80;99.80
9519;DHT22;4797;50.220;8.782;2023-09-07T06:09:54;16.80;99.80
9519;DHT22;4797;50.220;8.782;2023-09-07T06:12:26;16.90;99.80
9519;DHT22;4797;50.220;8.782;2023-09-07T06:14:54;17.00;99.80
9519;DHT22;4797;50.220;8.782;2023-09-07T06:17:23;17.10;99.80
9519;DHT22;4797;50.220;8.782;2023-09-07T06:19:51;17.20;99.80
9519;DHT22;4797;50.220;8.782;2023-09-07T06:22:21;17.30;99.80
9519;DHT22;4797;50.220;8.782;2023-09-07T06:24:49;17.40;99.80
9519;DHT22;4797;50.220;8.782;2023-09-07T06:27:18;17.50;99.80
9519;DHT22;4797;50.220;8.782;2023-09-07T06:29:48;17.60;99.80
9519;DHT22;4797;50.220;8.782;2023-09-07T06:32:17;17.70;99.80
9519;DHT22;4797;50.220;8.782;2023-09-07T06:34:46;17.70;99.80
9519;DHT22;4797;50.220;8.782;2023-09-07T06:37:14;17.80;99.80
9519;DHT22;4797;50.220;8.782;2023-09-07T06:39:44;17.90;99.80
9519;DHT22;4797;50.220;8.782;2023-09-07T06:42:13;18.00;99.80
9519;DHT22;4797;50.220;8.782;2023-09-07T06:44:43;18.10;99.80
9519;DHT22;4797;50.220;8.782;2023-09-07T06:47:13;18.10;99.80
9519;DHT22;4797;50.220;8.782;2023-09-07T06:49:41;18.20;99.80
9519;DHT22;4797;50.220;8.782;2023-09-07T06:52:10;18.30;99.80
9519;DHT22;4797;50.220;8.782;2023-09-07T06:54:39;18.40;99.80
9519;DHT22;4797;50.220;8.782;2023-09-07T06:57:07;18.50;99.80
9519;DHT22;4797;50.220;8.782;2023-09-07T06:59:35;18.60;99.80
9519;DHT22;4797;50.220;8.782;2023-09-07T07:02:03;18.60;99.80
9519;DHT22;4797;50.220;8.782;2023-09-07T07:04:33;18.70;99.80
9519;DHT22;4797;50.220;8.782;2023-09-07T07:07:03;18.70;99.80
9519;DHT22;4797;50.220;8.782;2023-09-07T07:09:32;18.80;99.80
9519;DHT22;4797;50.220;8.782;2023-09-07T07:12:00;18.90;99.80
9519;DHT22;4797;50.220;8.782;2023-09-07T07:14:28;18.90;99.80
9519;DHT22;4797;50.220;8.782;2023-09-07T07:16:59;19.00;99.80
9519;DHT22;4797;50.220;8.782;2023-09-07T07:19:28;19.10;99.80
9519;DHT22;4797;50.220;8.782;2023-09-07T07:22:00;19.10;99.80
9519;DHT22;4797;50.220;8.782;2023-09-07T07:24:29;19.20;99.80
9519;DHT22;4797;50.220;8.782;2023-09-07T07:26:58;19.30;99.80
9519;DHT22;4797;50.220;8.782;2023-09-07T07:29:26;19.40;99.80
9519;DHT22;4797;50.220;8.782;2023-09-07T07:31:56;19.50;99.80
9519;DHT22;4797;50.220;8.782;2023-09-07T07:34:27;19.60;99.80
9519;DHT22;4797;50.220;8.782;2023-09-07T07:36:55;19.70;99.80
9519;DHT22;4797;50.220;8.782;2023-09-07T07:39:25;19.80;99.80
9519;DHT22;4797;50.220;8.782;2023-09-07T07:41:53;19.90;99.80
9519;DHT22;4797;50.220;8.782;2023-09-07T07:44:22;19.90;99.80
9519;DHT22;4797;50.220;8.782;2023-09-07T07:46:50;20.00;99.80
9519;DHT22;4797;50.220;8.782;2023-09-07T07:49:18;20.10;99.80
9519;DHT22;4797;50.220;8.782;2023-09-07T07:51:47;20.20;99.80
9519;DHT22;4797;50.220;8.782;2023-09-07T07:54:15;20.30;99.80
9519;DHT22;4797;50.220;8.782;2023-09-07T07:56:44;20.40;99.80
9519;DHT22;4797;50.220;8.782;2023-09-07T07:59:12;20.50;99.80
9519;DHT22;4797;50.220;8.782;2023-09-07T08:01:40;20.60;99.80
9519;DHT22;4797;50.220;8.782;2023-09-07T08:04:08;20.70;99.80
9519;DHT22;4797;50.220;8.782;2023-09-07T08:06:38;20.80;99.80
9519;DHT22;4797;50.220;8.782;2023-09-07T08:09:06;20.90;99.80
9519;DHT22;4797;50.220;8.782;2023-09-07T08:11:35;21.00;99.80
9519;DHT22;4797;50.220;8.782;2023-09-07T08:14:04;21.10;99.80
9519;DHT22;4797;50.220;8.782;2023-09-07T08:16:32;21.20;99.80
9519;DHT22;4797;50.220;8.782;2023-09-07T08:19:00;21.30;99.80
9519;DHT22;4797;50.220;8.782;2023-09-07T08:21:31;21.50;99.80
9519;DHT22;4797;50.220;8.782;2023-09-07T08:23:59;21.60;99.80
9519;DHT22;4797;50.220;8.782;2023-09-07T08:26:27;21.70;99.80
9519;DHT22;4797;50.220;8.782;2023-09-07T08:28:55;21.80;99.80
9519;DHT22;4797;50.220;8.782;2023-09-07T08:31:24;21.90;99.80
9519;DHT22;4797;50.220;8.782;2023-09-07T08:33:53;21.90;99.80
9519;DHT22;4797;50.220;8.782;2023-09-07T08:36:22;22.00;99.80
9519;DHT22;4797;50.220;8.782;2023-09-07T08:38:51;22.10;99.80
9519;DHT22;4797;50.220;8.782;2023-09-07T08:41:21;22.20;99.80
9519;DHT22;4797;50.220;8.782;2023-09-07T08:43:49;22.30;99.80
9519;DHT22;4797;50.220;8.782;2023-09-07T08:46:21;22.40;99.80
9519;DHT22;4797;50.220;8.782;2023-09-07T08:48:52;22.50;99.80
9519;DHT22;4797;50.220;8.782;2023-09-07T08:51:24;22.60;99.80
9519;DHT22;4797;50.220;8.782;2023-09-07T08:53:54;22.70;99.80
9519;DHT22;4797;50.220;8.782;2023-09-07T08:56:23;22.80;99.80
9519;DHT22;4797;50.220;8.782;2023-09-07T08:58:52;22.90;99.80
9519;DHT22;4797;50.220;8.782;2023-09-07T09:01:20;23.10;99.80
9519;DHT22;4797;50.220;8.782;2023-09-07T09:03:49;23.20;99.80
9519;DHT22;4797;50.220;8.782;2023-09-07T09:06:20;23.40;99.80
9519;DHT22;4797;50.220;8.782;2023-09-07T09:08:49;23.50;99.80
9519;DHT22;4797;50.220;8.782;2023-09-07T09:11:19;23.70;99.80
9519;DHT22;4797;50.220;8.782;2023-09-07T09:13:48;23.80;99.80
9519;DHT22;4797;50.220;8.782;2023-09-07T09:16:17;24.00;99.80
9519;DHT22;4797;50.220;8.782;2023-09-07T09:18:49;24.10;99.80
9519;DHT22;4797;50.220;8.782;2023-09-07T09:21:21;24.30;99.80
9519;DHT22;4797;50.220;8.782;2023-09-07T09:23:51;24.50;99.80
9519;DHT22;4797;50.220;8.782;2023-09-07T09:26:19;24.60;99.80
9519;DHT22;4797;50.220;8.782;2023-09-07T09:28:48;24.80;99.80
9519;DHT22;4797;50.220;8.782;2023-09-07T09:31:18;24.90;99.80
9519;DHT22;4797;50.220;8.782;2023-09-07T09:33:49;25.00;99.80
9519;DHT22;4797;50.220;8.782;2023-09-07T09:36:20;25.00;99.80
9519;DHT22;4797;50.220;8.782;2023-09-07T09:38:51;25.10;99.80
9519;DHT22;4797;50.220;8.782;2023-09-07T09:41:20;25.30;99.80
9519;DHT22;4797;50.220;8.782;2023-09-07T09:43:48;25.40;99.80
9519;DHT22;4797;50.220;8.782;2023-09-07T09:46:18;25.50;99.80
9519;DHT22;4797;50.220;8.782;2023-09-07T09:48:47;25.70;99.80
9519;DHT22;4797;50.220;8.782;2023-09-07T09:51:15;25.80;99.80
9519;DHT22;4797;50.220;8.782;2023-09-07T09:53:47;25.80;99.00
9519;DHT22;4797;50.220;8.782;2023-09-07T09:56:16;25.90;99.80
9519;DHT22;4797;50.220;8.782;2023-09-07T09:58:44;25.90;99.70
9519;DHT22;4797;50.220;8.782;2023-09-07T10:01:13;26.10;99.80
9519;DHT22;4797;50.220;8.782;2023-09-07T10:03:44;26.20;99.10
9519;DHT22;4797;50.220;8.782;2023-09-07T10:06:18;26.30;99.10
9519;DHT22;4797;50.220;8.782;2023-09-07T10:08:58;26.30;98.40
9519;DHT22;4797;50.220;8.782;2023-09-07T10:11:29;26.40;98.00
9519;DHT22;4797;50.220;8.782;2023-09-07T10:13:58;26.50;98.40
9519;DHT22;4797;50.220;8.782;2023-09-07T10:16:26;26.60;97.30
9519;DHT22;4797;50.220;8.782;2023-09-07T10:18:56;26.70;97.80
9519;DHT22;4797;50.220;8.782;2023-09-07T10:21:25;26.70;97.40
9519;DHT22;4797;50.220;8.782;2023-09-07T10:23:58;26.80;96.40
9519;DHT22;4797;50.220;8.782;2023-09-07T10:26:36;26.90;97.10
9519;DHT22;4797;50.220;8.782;2023-09-07T10:29:04;27.00;96.80
9519;DHT22;4797;50.220;8.782;2023-09-07T10:31:33;27.10;95.50
9519;DHT22;4797;50.220;8.782;2023-09-07T10:34:19;27.20;95.60
9519;DHT22;4797;50.220;8.782;2023-09-07T10:36:55;27.20;95.80
9519;DHT22;4797;50.220;8.782;2023-09-07T10:39:29;27.20;94.30
9519;DHT22;4797;50.220;8.782;2023-09-07T10:41:58;27.30;93.60
9519;DHT22;4797;50.220;8.782;2023-09-07T10:44:28;27.30;93.60
9519;DHT22;4797;50.220;8.782;2023-09-07T10:46:57;27.40;93.40
9519;DHT22;4797;50.220;8.782;2023-09-07T10:49:25;27.60;93.40
9519;DHT22;4797;50.220;8.782;2023-09-07T10:51:53;27.80;93.10
9519;DHT22;4797;50.220;8.782;2023-09-07T10:54:23;27.90;91.70
9519;DHT22;4797;50.220;8.782;2023-09-07T10:56:53;28.00;90.90
9519;DHT22;4797;50.220;8.782;2023-09-07T10:59:27;28.10;90.60
9519;DHT22;4797;50.220;8.782;2023-09-07T11:02:03;28.20;90.20
9519;DHT22;4797;50.220;8.782;2023-09-07T11:04:32;28.30;90.90
9519;DHT22;4797;50.220;8.782;2023-09-07T11:07:01;28.50;90.80
9519;DHT22;4797;50.220;8.782;2023-09-07T11:09:30;28.60;89.50
9519;DHT22;4797;50.220;8.782;2023-09-07T11:12:05;28.70;89.80
9519;DHT22;4797;50.220;8.782;2023-09-07T11:14:39;28.90;88.90
9519;DHT22;4797;50.220;8.782;2023-09-07T11:17:10;29.00;89.10
9519;DHT22;4797;50.220;8.782;2023-09-07T11:19:38;29.10;88.30
9519;DHT22;4797;50.220;8.782;2023-09-07T11:22:09;29.30;87.50
9519;DHT22;4797;50.220;8.782;2023-09-07T11:24:37;29.50;87.50
9519;DHT22;4797;50.220;8.782;2023-09-07T11:27:09;29.70;87.00
9519;DHT22;4797;50.220;8.782;2023-09-07T11:29:37;29.80;86.90
9519;DHT22;4797;50.220;8.782;2023-09-07T11:32:19;29.90;86.40
9519;DHT22;4797;50.220;8.782;2023-09-07T11:34:53;30.00;86.00
9519;DHT22;4797;50.220;8.782;2023-09-07T11:37:26;30.20;86.20
9519;DHT22;4797;50.220;8.782;2023-09-07T11:39:55;30.30;85.70
9519;DHT22;4797;50.220;8.782;2023-09-07T11:42:34;30.70;87.00
9519;DHT22;4797;50.220;8.782;2023-09-07T11:45:06;33.80;80.10
9519;DHT22;4797;50.220;8.782;2023-09-07T11:47:36;37.30;69.60
9519;DHT22;4797;50.220;8.782;2023-09-07T11:50:05;40.10;64.90
9519;DHT22;4797;50.220;8.782;2023-09-07T11:52:34;42.20;60.30
9519;DHT22;4797;50.220;8.782;2023-09-07T11:55:02;43.90;58.50
9519;DHT22;4797;50.220;8.782;2023-09-07T11:57:35;44.90;55.10
9519;DHT22;4797;50.220;8.782;2023-09-07T12:00:05;45.70;54.30
9519;DHT22;4797;50.220;8.782;2023-09-07T12:02:38;46.10;53.50
9519;DHT22;4797;50.220;8.782;2023-09-07T12:05:10;46.50;51.80
9519;DHT22;4797;50.220;8.782;2023-09-07T12:07:42;46.80;50.40
9519;DHT22;4797;50.220;8.782;2023-09-07T12:10:13;46.80;50.50
9519;DHT22;4797;50.220;8.782;2023-09-07T12:12:43;47.00;50.30
9519;DHT22;4797;50.220;8.782;2023-09-07T12:15:11;47.40;48.80
9519;DHT22;4797;50.220;8.782;2023-09-07T12:17:39;47.00;49.10
9519;DHT22;4797;50.220;8.782;2023-09-07T12:20:10;46.90;49.60
9519;DHT22;4797;50.220;8.782;2023-09-07T12:22:41;46.90;50.00
9519;DHT22;4797;50.220;8.782;2023-09-07T12:25:10;47.30;49.30
9519;DHT22;4797;50.220;8.782;2023-09-07T12:27:46;47.80;48.60
9519;DHT22;4797;50.220;8.782;2023-09-07T12:30:21;48.20;47.80
9519;DHT22;4797;50.220;8.782;2023-09-07T12:32:51;47.90;47.90
9519;DHT22;4797;50.220;8.782;2023-09-07T12:35:22;48.20;47.60
9519;DHT22;4797;50.220;8.782;2023-09-07T12:37:56;48.50;47.60
9519;DHT22;4797;50.220;8.782;2023-09-07T12:40:26;48.70;47.00
9519;DHT22;4797;50.220;8.782;2023-09-07T12:42:56;48.90;46.90
9519;DHT22;4797;50.220;8.782;2023-09-07T12:45:25;49.10;46.70
9519;DHT22;4797;50.220;8.782;2023-09-07T12:47:53;49.30;45.90
9519;DHT22;4797;50.220;8.782;2023-09-07T12:50:28;49.40;45.90
9519;DHT22;4797;50.220;8.782;2023-09-07T12:52:56;49.30;45.40
9519;DHT22;4797;50.220;8.782;2023-09-07T12:55:33;49.00;45.70
9519;DHT22;4797;50.220;8.782;2023-09-07T12:58:03;49.30;46.10
9519;DHT22;4797;50.220;8.782;2023-09-07T13:00:31;49.20;45.60
9519;DHT22;4797;50.220;8.782;2023-09-07T13:03:03;48.30;47.00
9519;DHT22;4797;50.220;8.782;2023-09-07T13:05:33;45.50;49.00
9519;DHT22;4797;50.220;8.782;2023-09-07T13:08:03;42.50;52.70
9519;DHT22;4797;50.220;8.782;2023-09-07T13:10:33;39.90;57.30
9519;DHT22;4797;50.220;8.782;2023-09-07T13:13:03;37.90;61.50
9519;DHT22;4797;50.220;8.782;2023-09-07T13:15:31;36.50;64.20
9519;DHT22;4797;50.220;8.782;2023-09-07T13:18:00;35.30;65.50
9519;DHT22;4797;50.220;8.782;2023-09-07T13:20:28;34.40;69.20
9519;DHT22;4797;50.220;8.782;2023-09-07T13:22:57;33.70;70.20
9519;DHT22;4797;50.220;8.782;2023-09-07T13:25:27;33.00;71.10
9519;DHT22;4797;50.220;8.782;2023-09-07T13:27:59;32.30;73.00
9519;DHT22;4797;50.220;8.782;2023-09-07T13:30:29;31.70;76.10
9519;DHT22;4797;50.220;8.782;2023-09-07T13:32:57;31.40;78.20
9519;DHT22;4797;50.220;8.782;2023-09-07T13:35:26;31.20;78.60
9519;DHT22;4797;50.220;8.782;2023-09-07T13:37:55;31.10;77.10
9519;DHT22;4797;50.220;8.782;2023-09-07T13:40:23;31.00;75.90
9519;DHT22;4797;50.220;8.782;2023-09-07T13:42:56;30.90;77.50
9519;DHT22;4797;50.220;8.782;2023-09-07T13:45:24;30.70;78.20
9519;DHT22;4797;50.220;8.782;2023-09-07T13:47:56;30.70;78.20
9519;DHT22;4797;50.220;8.782;2023-09-07T13:50:24;30.70;78.50
9519;DHT22;4797;50.220;8.782;2023-09-07T13:52:53;30.60;78.50
9519;DHT22;4797;50.220;8.782;2023-09-07T13:55:21;30.50;79.60
9519;DHT22;4797;50.220;8.782;2023-09-07T13:57:51;30.40;79.60
9519;DHT22;4797;50.220;8.782;2023-09-07T14:00:19;30.30;80.70
9519;DHT22;4797;50.220;8.782;2023-09-07T14:02:48;30.20;80.00
9519;DHT22;4797;50.220;8.782;2023-09-07T14:05:18;30.10;81.20
9519;DHT22;4797;50.220;8.782;2023-09-07T14:07:46;30.10;80.90
9519;DHT22;4797;50.220;8.782;2023-09-07T14:10:14;30.00;81.00
9519;DHT22;4797;50.220;8.782;2023-09-07T14:12:43;30.10;81.00
9519;DHT22;4797;50.220;8.782;2023-09-07T14:15:13;30.20;81.10
9519;DHT22;4797;50.220;8.782;2023-09-07T14:17:42;30.20;80.90
9519;DHT22;4797;50.220;8.782;2023-09-07T14:20:11;30.20;80.10
9519;DHT22;4797;50.220;8.782;2023-09-07T14:22:41;30.10;81.50
9519;DHT22;4797;50.220;8.782;2023-09-07T14:25:09;30.00;81.50
9519;DHT22;4797;50.220;8.782;2023-09-07T14:27:37;30.00;82.30
9519;DHT22;4797;50.220;8.782;2023-09-07T14:30:06;29.90;82.90
9519;DHT22;4797;50.220;8.782;2023-09-07T14:32:34;29.90;82.00
9519;DHT22;4797;50.220;8.782;2023-09-07T14:35:02;29.80;82.50
9519;DHT22;4797;50.220;8.782;2023-09-07T14:37:31;29.80;82.60
9519;DHT22;4797;50.220;8.782;2023-09-07T14:40:00;29.80;83.30
9519;DHT22;4797;50.220;8.782;2023-09-07T14:42:28;29.80;83.20
9519;DHT22;4797;50.220;8.782;2023-09-07T14:44:56;29.80;82.50
9519;DHT22;4797;50.220;8.782;2023-09-07T14:47:26;29.80;81.80
9519;DHT22;4797;50.220;8.782;2023-09-07T14:49:55;29.80;81.60
9519;DHT22;4797;50.220;8.782;2023-09-07T14:52:23;29.80;82.60
9519;DHT22;4797;50.220;8.782;2023-09-07T14:54:51;29.80;82.20
9519;DHT22;4797;50.220;8.782;2023-09-07T14:57:21;30.00;81.70
9519;DHT22;4797;50.220;8.782;2023-09-07T14:59:51;31.00;79.00
9519;DHT22;4797;50.220;8.782;2023-09-07T15:02:19;31.20;76.70
9519;DHT22;4797;50.220;8.782;2023-09-07T15:04:47;30.80;78.60
9519;DHT22;4797;50.220;8.782;2023-09-07T15:07:15;30.50;80.10
9519;DHT22;4797;50.220;8.782;2023-09-07T15:09:43;30.20;80.30
9519;DHT22;4797;50.220;8.782;2023-09-07T15:12:11;30.10;81.00
9519;DHT22;4797;50.220;8.782;2023-09-07T15:14:41;30.10;80.90
9519;DHT22;4797;50.220;8.782;2023-09-07T15:17:10;30.00;79.80
9519;DHT22;4797;50.220;8.782;2023-09-07T15:19:40;30.00;80.60
9519;DHT22;4797;50.220;8.782;2023-09-07T15:22:08;30.30;80.40
9519;DHT22;4797;50.220;8.782;2023-09-07T15:24:36;30.70;80.00
9519;DHT22;4797;50.220;8.782;2023-09-07T15:27:08;30.70;80.90
9519;DHT22;4797;50.220;8.782;2023-09-07T15:29:36;30.60;81.10
9519;DHT22;4797;50.220;8.782;2023-09-07T15:32:11;30.50;81.40
9519;DHT22;4797;50.220;8.782;2023-09-07T15:34:39;30.50;79.90
9519;DHT22;4797;50.220;8.782;2023-09-07T15:37:07;31.30;77.80
9519;DHT22;4797;50.220;8.782;2023-09-07T15:39:35;31.20;77.90
9519;DHT22;4797;50.220;8.782;2023-09-07T15:42:03;30.90;78.30
9519;DHT22;4797;50.220;8.782;2023-09-07T15:44:31;30.40;78.70
9519;DHT22;4797;50.220;8.782;2023-09-07T15:47:02;30.10;79.20
9519;DHT22;4797;50.220;8.782;2023-09-07T15:49:31;29.80;79.50
9519;DHT22;4797;50.220;8.782;2023-09-07T15:51:59;29.60;80.40
9519;DHT22;4797;50.220;8.782;2023-09-07T15:54:28;29.40;80.20
9519;DHT22;4797;50.220;8.782;2023-09-07T15:56:56;29.30;80.50
9519;DHT22;4797;50.220;8.782;2023-09-07T15:59:30;29.20;80.90
9519;DHT22;4797;50.220;8.782;2023-09-07T16:01:59;29.10;82.00
9519;DHT22;4797;50.220;8.782;2023-09-07T16:04:26;28.90;82.90
9519;DHT22;4797;50.220;8.782;2023-09-07T16:06:56;28.80;84.10
9519;DHT22;4797;50.220;8.782;2023-09-07T16:09:24;28.70;84.40
9519;DHT22;4797;50.220;8.782;2023-09-07T16:11:53;28.60;84.80
9519;DHT22;4797;50.220;8.782;2023-09-07T16:14:20;28.60;85.90
9519;DHT22;4797;50.220;8.782;2023-09-07T16:16:48;28.50;86.30